Time;durP1;ratioP1;P1;durP2;ratioP2;P2;SDS_P1;SDS_P2;PMS_P1;PMS_P2;Temp;Humidity;BMP_temperature;BMP_pressure;BME280_temperature;BME280_humidity;BME280_pressure;Samples;Min_cycle;Max_cycle;Signal;HPM_P1;HPM_P2
2022/10/06 00:02:22;;;;;;;464.97;257.73;;;;;;;;;;5093478;28;20480;-76
2022/10/06 00:04:49;;;;;;;466.92;262.88;;;;;;;;;;5094787;28;20748;-75
2022/10/06 00:07:17;;;;;;;467.63;258.53;;;;;;;;;;5093918;28;20200;-75
2022/10/06 00:09:45;;;;;;;464.30;259.43;;;;;;;;;;5094124;28;20450;-75
2022/10/06 00:12:12;;;;;;;465.90;249.00;;;;;;;;;;5093664;28;20933;-76
2022/10/06 00:14:40;;;;;;;455.33;238.02;;;;;;;;;;5094449;28;20463;-76
2022/10/06 00:17:09;;;;;;;463.87;248.90;;;;;;;;;;5094199;28;20206;-76
2022/10/06 00:19:36;;;;;;;462.27;242.83;;;;;;;;;;5093942;28;20444;-76
2022/10/06 00:22:04;;;;;;;465.85;245.70;;;;;;;;;;5093577;28;20445;-76
2022/10/06 00:24:31;;;;;;;441.97;255.23;;;;;;;;;;5094027;28;20206;-75
2022/10/06 00:26:58;;;;;;;457.60;232.27;;;;;;;;;;5093711;28;20460;-75
2022/10/06 00:29:26;;;;;;;446.60;233.47;;;;;;;;;;5093143;28;20441;-76
2022/10/06 00:31:54;;;;;;;462.20;239.40;;;;;;;;;;5093121;28;20481;-76
2022/10/06 00:34:22;;;;;;;457.57;227.80;;;;;;;;;;5093628;28;20456;-75
2022/10/06 00:36:49;;;;;;;459.57;247.77;;;;;;;;;;5094042;28;20441;-75
2022/10/06 00:39:18;;;;;;;451.80;226.90;;;;;;;;;;5093674;28;20449;-75
2022/10/06 00:41:46;;;;;;;458.15;227.35;;;;;;;;;;5092935;28;20443;-76
2022/10/06 00:44:13;;;;;;;441.07;226.50;;;;;;;;;;5093755;28;20629;-76
2022/10/06 00:46:43;;;;;;;456.38;219.77;;;;;;;;;;5093981;28;20447;-76
2022/10/06 00:49:13;;;;;;;458.10;225.37;;;;;;;;;;5093985;28;20225;-76
2022/10/06 00:51:43;;;;;;;448.63;249.17;;;;;;;;;;5093064;28;20480;-76
2022/10/06 00:54:11;;;;;;;455.67;247.63;;;;;;;;;;5093329;28;20504;-75
2022/10/06 00:56:39;;;;;;;454.85;230.68;;;;;;;;;;5093919;28;20442;-76
2022/10/06 00:59:09;;;;;;;454.37;253.57;;;;;;;;;;5093294;28;20238;-75
2022/10/06 01:01:37;;;;;;;457.67;242.47;;;;;;;;;;5093069;28;20458;-76
2022/10/06 01:04:07;;;;;;;442.10;246.73;;;;;;;;;;5093309;28;20465;-76
2022/10/06 01:06:44;;;;;;;308.03;250.60;;;;;;;;;;5093321;28;20451;-76
2022/10/06 01:09:11;;;;;;;460.75;241.32;;;;;;;;;;5093621;28;20507;-75
2022/10/06 01:11:39;;;;;;;452.90;243.90;;;;;;;;;;5092697;28;20280;-76
2022/10/06 01:14:06;;;;;;;448.43;245.07;;;;;;;;;;5093721;28;20809;-76
2022/10/06 01:16:36;;;;;;;449.67;240.20;;;;;;;;;;5093759;28;20558;-75
2022/10/06 01:19:04;;;;;;;459.87;256.07;;;;;;;;;;5094011;28;20531;-76
2022/10/06 01:21:34;;;;;;;457.13;234.10;;;;;;;;;;5092850;28;20443;-76
2022/10/06 01:24:04;;;;;;;452.93;246.27;;;;;;;;;;5093170;28;20699;-75
2022/10/06 01:26:32;;;;;;;452.23;240.07;;;;;;;;;;5093534;28;20936;-75
2022/10/06 01:29:00;;;;;;;453.88;233.75;;;;;;;;;;5093161;28;20928;-75
2022/10/06 01:31:28;;;;;;;462.47;246.07;;;;;;;;;;5092748;28;20223;-76
2022/10/06 01:33:55;;;;;;;458.10;242.97;;;;;;;;;;5093444;28;20830;-75
2022/10/06 01:36:22;;;;;;;453.07;227.57;;;;;;;;;;5093016;28;20449;-76
2022/10/06 01:38:50;;;;;;;449.87;236.63;;;;;;;;;;5093312;28;20928;-75
2022/10/06 01:41:20;;;;;;;452.73;226.88;;;;;;;;;;5094064;28;20809;-76
2022/10/06 01:43:47;;;;;;;447.93;234.30;;;;;;;;;;5097075;28;20312;-76
2022/10/06 01:46:15;;;;;;;452.20;228.02;;;;;;;;;;5096521;28;20453;-76
2022/10/06 01:48:42;;;;;;;451.13;236.97;;;;;;;;;;5096941;28;20237;-76
2022/10/06 01:51:14;;;;;;;463.47;241.37;;;;;;;;;;5096244;28;20481;-76
2022/10/06 01:53:42;;;;;;;451.10;233.00;;;;;;;;;;5096912;28;20462;-76
2022/10/06 01:56:09;;;;;;;448.53;237.90;;;;;;;;;;5096480;28;20690;-76
2022/10/06 01:58:38;;;;;;;450.10;228.93;;;;;;;;;;5096644;28;20448;-75
2022/10/06 02:01:06;;;;;;;451.20;248.67;;;;;;;;;;5095951;28;20467;-76
2022/10/06 02:03:35;;;;;;;375.70;210.73;;;;;;;;;;5096287;28;20977;-75
2022/10/06 02:06:02;;;;;;;414.00;231.17;;;;;;;;;;5096609;28;20794;-76
2022/10/06 02:08:30;;;;;;;427.87;228.30;;;;;;;;;;5096207;28;20455;-75
2022/10/06 02:10:57;;;;;;;442.63;240.03;;;;;;;;;;5096344;28;20795;-76
2022/10/06 02:13:25;;;;;;;398.90;235.07;;;;;;;;;;5096562;28;20474;-76
2022/10/06 02:15:57;;;;;;;445.00;225.73;;;;;;;;;;5096445;28;20493;-76
2022/10/06 02:18:24;;;;;;;454.40;249.47;;;;;;;;;;5096666;28;20429;-75
2022/10/06 02:20:52;;;;;;;456.67;240.43;;;;;;;;;;5096231;28;20441;-77
2022/10/06 02:23:19;;;;;;;444.93;228.17;;;;;;;;;;5095790;28;20465;-76
2022/10/06 02:25:46;;;;;;;431.23;232.17;;;;;;;;;;5096382;28;20452;-75
2022/10/06 02:28:15;;;;;;;429.57;240.57;;;;;;;;;;5095822;28;20463;-76
2022/10/06 02:30:43;;;;;;;435.03;224.33;;;;;;;;;;5096056;28;20861;-75
2022/10/06 02:33:12;;;;;;;448.67;226.73;;;;;;;;;;5095230;28;20551;-75
2022/10/06 02:35:41;;;;;;;447.13;225.00;;;;;;;;;;5095722;28;20453;-75
2022/10/06 02:38:08;;;;;;;409.87;227.57;;;;;;;;;;5095655;28;20548;-75
2022/10/06 02:40:36;;;;;;;433.30;225.87;;;;;;;;;;5095521;28;20460;-75
2022/10/06 02:43:04;;;;;;;442.10;243.00;;;;;;;;;;5095265;28;20472;-76
2022/10/06 02:45:31;;;;;;;453.73;236.57;;;;;;;;;;5095652;28;20452;-76
2022/10/06 02:47:58;;;;;;;445.07;219.57;;;;;;;;;;5095615;28;20452;-75
2022/10/06 02:50:27;;;;;;;455.37;228.30;;;;;;;;;;5095421;28;20441;-75
2022/10/06 02:52:55;;;;;;;452.45;219.20;;;;;;;;;;5094150;28;20496;-76
2022/10/06 02:55:23;;;;;;;443.67;213.13;;;;;;;;;;5095612;28;20561;-75
2022/10/06 02:57:50;;;;;;;450.05;214.23;;;;;;;;;;5095637;28;20440;-76
2022/10/06 03:00:17;;;;;;;450.00;223.63;;;;;;;;;;5095313;28;20219;-76
2022/10/06 03:02:45;;;;;;;435.27;235.83;;;;;;;;;;5094946;28;20469;-76
2022/10/06 03:05:12;;;;;;;454.17;223.67;;;;;;;;;;5095406;28;20449;-75
2022/10/06 03:07:41;;;;;;;450.37;246.70;;;;;;;;;;5095666;28;20442;-76
2022/10/06 03:10:09;;;;;;;443.93;217.90;;;;;;;;;;5095330;28;20458;-75
2022/10/06 03:12:36;;;;;;;392.83;242.70;;;;;;;;;;5094530;28;20484;-76
2022/10/06 03:15:03;;;;;;;452.38;218.30;;;;;;;;;;5094906;28;20956;-75
2022/10/06 03:17:31;;;;;;;444.63;209.25;;;;;;;;;;5095525;28;20221;-75
2022/10/06 03:19:58;;;;;;;454.33;212.80;;;;;;;;;;5094917;28;20203;-75
2022/10/06 03:22:25;;;;;;;457.30;209.43;;;;;;;;;;5094511;28;20222;-75
2022/10/06 03:24:54;;;;;;;427.93;213.67;;;;;;;;;;5095162;28;20808;-75
2022/10/06 03:27:21;;;;;;;407.10;210.83;;;;;;;;;;5094971;28;20481;-76
2022/10/06 03:29:50;;;;;;;446.67;215.33;;;;;;;;;;5094998;28;20450;-75
2022/10/06 03:32:18;;;;;;;413.90;207.43;;;;;;;;;;5094367;28;20492;-76
2022/10/06 03:34:46;;;;;;;444.27;203.33;;;;;;;;;;5094811;28;20810;-76
2022/10/06 03:37:13;;;;;;;429.37;221.33;;;;;;;;;;5094825;28;20450;-76
2022/10/06 03:39:41;;;;;;;339.27;219.47;;;;;;;;;;5094753;28;20452;-75
2022/10/06 03:42:09;;;;;;;417.20;222.97;;;;;;;;;;5094146;28;20452;-76
2022/10/06 03:44:37;;;;;;;430.13;204.87;;;;;;;;;;5094718;28;20448;-75
2022/10/06 03:47:04;;;;;;;425.90;211.73;;;;;;;;;;5094825;28;20793;-75
2022/10/06 03:49:31;;;;;;;443.80;205.50;;;;;;;;;;5094265;28;20440;-75
2022/10/06 03:51:59;;;;;;;425.93;206.50;;;;;;;;;;5093664;28;20476;-76
2022/10/06 03:54:26;;;;;;;412.77;214.67;;;;;;;;;;5094527;28;20449;-75
2022/10/06 03:56:54;;;;;;;437.63;218.20;;;;;;;;;;5094481;28;20453;-75
2022/10/06 03:59:23;;;;;;;419.20;205.03;;;;;;;;;;5094855;28;20435;-75
2022/10/06 04:01:51;;;;;;;445.97;202.57;;;;;;;;;;5093548;28;20460;-76
2022/10/06 04:04:18;;;;;;;400.67;213.03;;;;;;;;;;5094142;28;20469;-76
2022/10/06 04:06:46;;;;;;;413.80;217.47;;;;;;;;;;5094101;28;20445;-75
2022/10/06 04:09:14;;;;;;;386.03;239.30;;;;;;;;;;5094266;28;20812;-75
2022/10/06 04:11:41;;;;;;;401.47;217.47;;;;;;;;;;5093659;28;20480;-76
2022/10/06 04:14:10;;;;;;;390.07;207.73;;;;;;;;;;5094111;28;20952;-75
2022/10/06 04:16:39;;;;;;;404.00;221.27;;;;;;;;;;5094182;28;20769;-76
2022/10/06 04:19:08;;;;;;;384.93;203.83;;;;;;;;;;5094098;28;20946;-76
2022/10/06 04:21:36;;;;;;;209.10;191.90;;;;;;;;;;5093504;28;20491;-75
2022/10/06 04:24:04;;;;;;;364.33;215.23;;;;;;;;;;5094232;28;20468;-76
2022/10/06 04:26:32;;;;;;;368.60;205.63;;;;;;;;;;5094443;28;20452;-75
2022/10/06 04:29:00;;;;;;;330.10;214.33;;;;;;;;;;5093940;28;20456;-75
2022/10/06 04:31:28;;;;;;;397.07;201.20;;;;;;;;;;5093062;28;20515;-76
2022/10/06 04:33:58;;;;;;;379.00;211.57;;;;;;;;;;5093740;28;20956;-76
2022/10/06 04:36:26;;;;;;;365.97;210.30;;;;;;;;;;5093664;28;20453;-75
2022/10/06 04:38:55;;;;;;;416.43;188.40;;;;;;;;;;5093896;28;20456;-75
2022/10/06 04:41:23;;;;;;;420.33;188.70;;;;;;;;;;5092553;28;20488;-76
2022/10/06 04:43:51;;;;;;;423.70;191.07;;;;;;;;;;5093678;28;20831;-75
2022/10/06 04:46:19;;;;;;;352.43;201.73;;;;;;;;;;5093599;28;20436;-75
2022/10/06 04:48:47;;;;;;;431.90;209.47;;;;;;;;;;5093529;28;20476;-75
2022/10/06 04:51:16;;;;;;;451.05;193.77;;;;;;;;;;5093189;28;20448;-76
2022/10/06 04:53:44;;;;;;;393.13;208.90;;;;;;;;;;5093195;28;20226;-76
2022/10/06 04:56:13;;;;;;;408.23;211.50;;;;;;;;;;5093635;28;20448;-75
2022/10/06 04:58:41;;;;;;;437.65;185.88;;;;;;;;;;5093476;28;20456;-76
2022/10/06 05:01:13;;;;;;;445.48;210.10;;;;;;;;;;5092852;28;20210;-76
2022/10/06 05:03:41;;;;;;;419.90;201.57;;;;;;;;;;5092984;28;20233;-75
2022/10/06 05:06:09;;;;;;;416.73;193.47;;;;;;;;;;5094130;28;20445;-75
2022/10/06 05:08:38;;;;;;;387.67;194.77;;;;;;;;;;5093728;28;20451;-75
2022/10/06 05:11:07;;;;;;;414.90;197.13;;;;;;;;;;5093106;28;20936;-76
2022/10/06 05:13:35;;;;;;;354.60;182.68;;;;;;;;;;5093134;28;20489;-76
2022/10/06 05:16:03;;;;;;;414.85;194.82;;;;;;;;;;5094223;28;20682;-76
2022/10/06 05:18:31;;;;;;;391.10;201.20;;;;;;;;;;5097493;28;20289;-75
2022/10/06 05:20:59;;;;;;;426.13;187.17;;;;;;;;;;5096690;28;20447;-76
2022/10/06 05:23:27;;;;;;;370.33;200.67;;;;;;;;;;5097634;28;20483;-75
2022/10/06 05:25:56;;;;;;;262.73;191.27;;;;;;;;;;5097774;28;20456;-76
2022/10/06 05:28:24;;;;;;;388.40;195.77;;;;;;;;;;5097507;28;20455;-76
2022/10/06 05:30:56;;;;;;;350.57;197.07;;;;;;;;;;5097073;28;20453;-77
2022/10/06 05:33:23;;;;;;;357.77;196.40;;;;;;;;;;5096524;28;20524;-76
2022/10/06 05:35:53;;;;;;;342.30;195.63;;;;;;;;;;5096924;28;20452;-75
2022/10/06 05:38:21;;;;;;;371.07;209.10;;;;;;;;;;5096983;28;20448;-75
2022/10/06 05:40:48;;;;;;;277.07;212.57;;;;;;;;;;5097204;28;20440;-76
2022/10/06 05:43:17;;;;;;;365.42;184.63;;;;;;;;;;5096552;28;20476;-76
2022/10/06 05:45:53;;;;;;;385.47;191.40;;;;;;;;;;5096329;28;20209;-75
2022/10/06 05:48:21;;;;;;;391.87;200.40;;;;;;;;;;5097086;28;20499;-75
2022/10/06 05:50:48;;;;;;;395.70;182.33;;;;;;;;;;5096926;28;20793;-76
2022/10/06 05:53:15;;;;;;;413.77;182.77;;;;;;;;;;5095133;28;20516;-73
2022/10/06 05:55:43;;;;;;;383.02;186.82;;;;;;;;;;5095378;28;20203;-73
2022/10/06 05:58:11;;;;;;;416.70;189.40;;;;;;;;;;5096467;28;20261;-75
2022/10/06 06:00:39;;;;;;;416.40;188.23;;;;;;;;;;5082985;28;20534;-76
2022/10/06 06:03:09;;;;;;;374.67;178.23;;;;;;;;;;5075864;28;20223;-76
2022/10/06 06:05:40;;;;;;;429.60;178.97;;;;;;;;;;5075825;28;20791;-73
2022/10/06 06:08:09;;;;;;;387.30;173.53;;;;;;;;;;5076010;28;20451;-72
2022/10/06 06:10:37;;;;;;;398.73;180.23;;;;;;;;;;5076456;28;20481;-72
2022/10/06 06:13:04;;;;;;;401.27;175.75;;;;;;;;;;5075466;28;20535;-81
2022/10/06 06:18:19;;;;;;;266.57;189.03;;;;;;;;;;5076183;28;20202;-73
2022/10/06 06:20:56;;;;;;;404.17;173.10;;;;;;;;;;5075755;28;20449;-73
2022/10/06 06:23:23;;;;;;;398.30;186.43;;;;;;;;;;5075521;28;20505;-72
2022/10/06 06:25:57;;;;;;;368.57;189.90;;;;;;;;;;5076069;28;20445;-72
2022/10/06 06:28:24;;;;;;;295.50;192.13;;;;;;;;;;5074371;28;20481;-71
2022/10/06 06:30:59;;;;;;;347.37;194.23;;;;;;;;;;5075489;28;20457;-73
2022/10/06 06:33:27;;;;;;;181.87;166.10;;;;;;;;;;5089395;28;20486;-72
2022/10/06 06:35:56;;;;;;;355.13;189.43;;;;;;;;;;5096002;28;20452;-72
2022/10/06 06:38:23;;;;;;;384.57;192.07;;;;;;;;;;5095679;28;20499;-72
2022/10/06 06:40:50;;;;;;;370.37;194.03;;;;;;;;;;5095602;28;21058;-73
2022/10/06 06:43:18;;;;;;;370.77;201.37;;;;;;;;;;5094779;28;20484;-72
2022/10/06 06:45:45;;;;;;;230.27;194.03;;;;;;;;;;5095434;28;20491;-74
2022/10/06 06:48:15;;;;;;;375.60;211.77;;;;;;;;;;5094602;28;20452;-72
2022/10/06 06:50:44;;;;;;;392.70;200.77;;;;;;;;;;5094632;28;20841;-73
2022/10/06 06:53:13;;;;;;;394.03;198.77;;;;;;;;;;5094672;28;20542;-72
2022/10/06 06:55:49;;;;;;;366.67;198.73;;;;;;;;;;5095617;28;20503;-72
2022/10/06 06:58:17;;;;;;;359.50;196.67;;;;;;;;;;5095357;28;20901;-72
2022/10/06 07:00:44;;;;;;;326.67;193.20;;;;;;;;;;5095099;28;20461;-72
2022/10/06 07:03:13;;;;;;;383.63;203.97;;;;;;;;;;5094449;28;20829;-72
2022/10/06 07:05:40;;;;;;;243.73;212.07;;;;;;;;;;5095205;28;20846;-73
2022/10/06 07:08:10;;;;;;;372.80;223.83;;;;;;;;;;5094759;28;20477;-75
2022/10/06 07:10:38;;;;;;;340.77;210.97;;;;;;;;;;5080154;28;20523;-72
2022/10/06 07:13:06;;;;;;;318.70;209.43;;;;;;;;;;5093125;28;21189;-72
2022/10/06 07:26:36;;;;;;;328.67;212.13;;;;;;;;;;5095049;28;20458;-72
2022/10/06 07:29:03;;;;;;;337.43;208.07;;;;;;;;;;5094955;28;20456;-72
2022/10/06 07:31:32;;;;;;;324.87;206.50;;;;;;;;;;5094439;28;20457;-72
2022/10/06 07:34:01;;;;;;;385.00;214.37;;;;;;;;;;5094670;28;20484;-72
2022/10/06 07:36:28;;;;;;;384.67;210.93;;;;;;;;;;5094687;28;20448;-72
2022/10/06 07:38:57;;;;;;;335.57;213.77;;;;;;;;;;5094231;28;20437;-72
2022/10/06 07:41:24;;;;;;;343.53;218.37;;;;;;;;;;5094114;28;20968;-72
2022/10/06 07:43:52;;;;;;;345.60;220.13;;;;;;;;;;5094668;28;20472;-72
2022/10/06 07:46:20;;;;;;;344.53;208.60;;;;;;;;;;5094735;28;20450;-72
2022/10/06 07:48:48;;;;;;;340.93;228.10;;;;;;;;;;5094109;28;20449;-73
2022/10/06 07:51:16;;;;;;;311.63;224.87;;;;;;;;;;5093623;28;20437;-72
2022/10/06 07:53:45;;;;;;;241.93;215.67;;;;;;;;;;5094471;28;20484;-71
2022/10/06 07:56:14;;;;;;;326.43;241.10;;;;;;;;;;5094308;28;20453;-72
2022/10/06 07:58:43;;;;;;;334.60;217.90;;;;;;;;;;5094509;28;20483;-72
2022/10/06 08:01:11;;;;;;;338.07;231.83;;;;;;;;;;5093426;28;20830;-72
2022/10/06 08:03:39;;;;;;;349.53;225.03;;;;;;;;;;5093823;28;20511;-72
2022/10/06 08:06:13;;;;;;;402.50;228.03;;;;;;;;;;5094360;28;20449;-72
2022/10/06 08:08:40;;;;;;;351.07;246.77;;;;;;;;;;5089813;28;20452;-73
2022/10/06 08:11:08;;;;;;;377.60;228.13;;;;;;;;;;5074240;28;21278;-71
2022/10/06 08:13:37;;;;;;;365.93;245.63;;;;;;;;;;5072961;28;20825;-74
2022/10/06 08:16:05;;;;;;;248.43;224.90;;;;;;;;;;5073792;28;20893;-72
2022/10/06 08:18:32;;;;;;;328.97;229.10;;;;;;;;;;5073667;28;20454;-73
2022/10/06 08:21:00;;;;;;;383.80;251.33;;;;;;;;;;5072914;28;20445;-73
2022/10/06 08:23:27;;;;;;;252.87;234.83;;;;;;;;;;5073534;28;20467;-72
2022/10/06 08:25:55;;;;;;;387.67;239.77;;;;;;;;;;5073550;28;20943;-77
2022/10/06 08:28:23;;;;;;;421.83;238.67;;;;;;;;;;5075036;28;20455;-73
2022/10/06 08:30:53;;;;;;;373.93;238.70;;;;;;;;;;5075007;28;20461;-74
2022/10/06 08:33:21;;;;;;;362.87;224.90;;;;;;;;;;5072829;28;20485;-73
2022/10/06 08:35:48;;;;;;;370.07;232.57;;;;;;;;;;5073779;28;20536;-72
2022/10/06 08:38:15;;;;;;;402.87;243.63;;;;;;;;;;5073090;28;20449;-73
2022/10/06 08:40:44;;;;;;;365.10;239.57;;;;;;;;;;5072569;28;20461;-72
2022/10/06 08:43:13;;;;;;;397.93;247.23;;;;;;;;;;5072596;28;20462;-72
2022/10/06 08:45:43;;;;;;;35.47;33.63;;;;;;;;;;5072978;28;20503;-72
2022/10/06 08:48:13;;;;;;;375.17;269.23;;;;;;;;;;5072943;28;20477;-73
2022/10/06 08:50:48;;;;;;;407.20;273.03;;;;;;;;;;5073572;28;20531;-72
2022/10/06 08:53:22;;;;;;;378.30;271.43;;;;;;;;;;5077713;28;20488;-75
2022/10/06 08:55:50;;;;;;;380.27;256.17;;;;;;;;;;5080498;28;20799;-75
2022/10/06 08:58:27;;;;;;;415.77;251.63;;;;;;;;;;5079619;28;20467;-77
2022/10/06 09:00:55;;;;;;;386.90;267.13;;;;;;;;;;5077459;28;20469;-74
2022/10/06 09:03:28;;;;;;;343.73;285.23;;;;;;;;;;5077451;28;20764;-74
2022/10/06 09:05:58;;;;;;;410.17;285.83;;;;;;;;;;5077073;28;20454;-74
2022/10/06 09:08:34;;;;;;;411.63;265.20;;;;;;;;;;5077967;28;20472;-74
2022/10/06 09:11:09;;;;;;;420.00;250.60;;;;;;;;;;5076523;28;20434;-75
2022/10/06 09:13:38;;;;;;;377.63;258.00;;;;;;;;;;5077354;28;20555;-73
2022/10/06 09:16:07;;;;;;;384.43;275.63;;;;;;;;;;5091303;28;20451;-73
2022/10/06 09:18:38;;;;;;;397.77;261.87;;;;;;;;;;5097553;28;20472;-74
2022/10/06 09:21:07;;;;;;;317.53;291.83;;;;;;;;;;5096718;28;20485;-75
2022/10/06 09:23:49;;;;;;;42.17;38.30;;;;;;;;;;5097597;28;20831;-75
2022/10/06 09:26:18;;;;;;;362.80;263.33;;;;;;;;;;5097333;28;20458;-74
2022/10/06 09:28:46;;;;;;;400.77;286.20;;;;;;;;;;5097583;28;20454;-75
2022/10/06 09:31:21;;;;;;;384.47;264.53;;;;;;;;;;5096274;28;20881;-75
2022/10/06 09:33:52;;;;;;;406.40;262.03;;;;;;;;;;5097186;28;20847;-75
2022/10/06 09:36:19;;;;;;;353.57;280.20;;;;;;;;;;5097338;28;20440;-74
2022/10/06 09:38:47;;;;;;;412.27;268.63;;;;;;;;;;5097760;28;20441;-75
2022/10/06 09:41:16;;;;;;;380.67;270.17;;;;;;;;;;5096702;28;20472;-75
2022/10/06 09:43:52;;;;;;;417.17;265.43;;;;;;;;;;5096240;28;20487;-75
2022/10/06 09:46:21;;;;;;;415.20;272.60;;;;;;;;;;5097018;28;20473;-75
2022/10/06 09:49:06;;;;;;;404.73;269.10;;;;;;;;;;5096625;28;20458;-74
2022/10/06 09:51:35;;;;;;;411.50;259.03;;;;;;;;;;5096603;28;20432;-74
2022/10/06 09:54:13;;;;;;;391.30;263.10;;;;;;;;;;5096908;28;20551;-74
2022/10/06 09:56:42;;;;;;;409.20;273.60;;;;;;;;;;5096834;28;20427;-75
2022/10/06 09:59:19;;;;;;;397.00;264.00;;;;;;;;;;5096452;28;20519;-75
2022/10/06 10:01:51;;;;;;;438.07;301.27;;;;;;;;;;5095148;28;20893;-75
2022/10/06 10:04:23;;;;;;;381.77;275.57;;;;;;;;;;5096417;28;20463;-75
2022/10/06 10:06:50;;;;;;;440.20;291.83;;;;;;;;;;5096734;28;20434;-74
2022/10/06 10:09:35;;;;;;;395.27;295.50;;;;;;;;;;5097062;28;20455;-77
2022/10/06 10:12:26;;;;;;;416.67;307.27;;;;;;;;;;5096960;28;20423;-78
2022/10/06 10:14:55;;;;;;;407.43;279.27;;;;;;;;;;5097308;28;20483;-78
2022/10/06 10:17:24;;;;;;;436.60;313.73;;;;;;;;;;5096935;28;20457;-76
2022/10/06 10:19:54;;;;;;;443.73;295.33;;;;;;;;;;5097282;28;20444;-77
2022/10/06 10:22:22;;;;;;;423.27;304.60;;;;;;;;;;5095418;28;20475;-76
2022/10/06 10:24:54;;;;;;;431.47;316.70;;;;;;;;;;5083811;28;20469;-77
2022/10/06 10:27:23;;;;;;;31.57;29.60;;;;;;;;;;5076250;28;20434;-77
2022/10/06 10:30:00;;;;;;;415.27;329.23;;;;;;;;;;5075765;28;20466;-77
2022/10/06 10:32:37;;;;;;;443.10;304.00;;;;;;;;;;5075353;28;20470;-77
2022/10/06 10:35:15;;;;;;;404.43;292.00;;;;;;;;;;5075320;28;20496;-77
2022/10/06 10:37:44;;;;;;;429.03;288.37;;;;;;;;;;5076015;28;20477;-77
2022/10/06 10:40:15;;;;;;;412.73;288.80;;;;;;;;;;5075784;28;20439;-76
2022/10/06 10:42:46;;;;;;;423.77;305.43;;;;;;;;;;5074758;28;20480;-77
2022/10/06 10:45:18;;;;;;;430.07;301.80;;;;;;;;;;5075490;28;20470;-77
2022/10/06 10:47:48;;;;;;;453.70;326.30;;;;;;;;;;5076580;28;20839;-81
2022/10/06 10:50:20;;;;;;;437.30;288.90;;;;;;;;;;5077654;28;20458;-80
2022/10/06 10:52:50;;;;;;;420.63;304.43;;;;;;;;;;5076414;28;20471;-79
2022/10/06 10:55:20;;;;;;;338.60;311.60;;;;;;;;;;5076595;28;20491;-77
2022/10/06 10:57:48;;;;;;;415.23;302.93;;;;;;;;;;5075047;28;20440;-77
2022/10/06 11:00:18;;;;;;;444.97;306.93;;;;;;;;;;5074004;28;20483;-77
2022/10/06 11:02:45;;;;;;;421.27;310.13;;;;;;;;;;5074279;28;20832;-77
2022/10/06 11:05:17;;;;;;;386.07;295.03;;;;;;;;;;5074988;28;20455;-77
2022/10/06 11:07:50;;;;;;;457.83;316.83;;;;;;;;;;5075270;28;20460;-77
2022/10/06 11:10:19;;;;;;;456.87;308.03;;;;;;;;;;5075204;28;20439;-77
2022/10/06 11:12:58;;;;;;;445.03;293.97;;;;;;;;;;5074231;28;20475;-77
2022/10/06 11:15:31;;;;;;;344.07;314.17;;;;;;;;;;5086469;28;20471;-77
2022/10/06 11:18:04;;;;;;;394.03;314.77;;;;;;;;;;5095072;28;20423;-76
2022/10/06 11:20:45;;;;;;;437.07;328.77;;;;;;;;;;5095598;28;20451;-77
2022/10/06 11:23:24;;;;;;;429.00;327.17;;;;;;;;;;5094913;28;20474;-77
2022/10/06 11:25:56;;;;;;;261.17;247.90;;;;;;;;;;5094972;28;20434;-77
2022/10/06 11:28:26;;;;;;;22.63;20.77;;;;;;;;;;5095198;28;20448;-77
2022/10/06 11:30:58;;;;;;;404.73;317.50;;;;;;;;;;5094946;28;20464;-78
2022/10/06 11:33:29;;;;;;;441.30;322.10;;;;;;;;;;5094841;28;20962;-76
2022/10/06 11:35:56;;;;;;;453.03;317.23;;;;;;;;;;5094664;28;20456;-77
2022/10/06 11:38:26;;;;;;;441.13;302.77;;;;;;;;;;5094978;28;20451;-77
2022/10/06 11:41:01;;;;;;;447.10;327.13;;;;;;;;;;5095026;28;20435;-77
2022/10/06 11:43:33;;;;;;;445.07;339.27;;;;;;;;;;5094432;28;20466;-78
2022/10/06 11:46:05;;;;;;;466.67;324.83;;;;;;;;;;5094490;28;20895;-76
2022/10/06 11:48:33;;;;;;;460.13;329.30;;;;;;;;;;5095048;28;20450;-76
2022/10/06 11:51:15;;;;;;;435.83;357.00;;;;;;;;;;5093951;28;20556;-78
2022/10/06 11:53:45;;;;;;;427.57;331.17;;;;;;;;;;5094060;28;20489;-77
2022/10/06 11:56:36;;;;;;;445.53;369.30;;;;;;;;;;5094583;28;20446;-77
2022/10/06 11:59:11;;;;;;;450.97;356.97;;;;;;;;;;5094238;28;20437;-76
2022/10/06 12:01:51;;;;;;;459.67;340.30;;;;;;;;;;5093736;28;20452;-77
2022/10/06 12:04:18;;;;;;;442.63;337.07;;;;;;;;;;5094359;28;20465;-76
2022/10/06 12:07:06;;;;;;;430.97;337.50;;;;;;;;;;5094068;28;20450;-76
2022/10/06 12:09:44;;;;;;;467.57;357.97;;;;;;;;;;5094441;28;20427;-77
2022/10/06 12:12:27;;;;;;;416.77;335.20;;;;;;;;;;5093483;28;20933;-77
2022/10/06 12:14:58;;;;;;;413.63;349.07;;;;;;;;;;5081390;28;20472;-77
2022/10/06 12:17:28;;;;;;;437.17;342.67;;;;;;;;;;5094094;28;20439;-77
2022/10/06 12:19:57;;;;;;;448.50;348.90;;;;;;;;;;5093344;28;20477;-77
2022/10/06 12:22:26;;;;;;;453.77;361.23;;;;;;;;;;5093719;28;20479;-77
2022/10/06 12:24:59;;;;;;;392.23;366.67;;;;;;;;;;5094312;28;20442;-77
2022/10/06 12:27:41;;;;;;;436.30;367.10;;;;;;;;;;5094122;28;20426;-77
2022/10/06 12:30:19;;;;;;;449.57;374.63;;;;;;;;;;5091790;28;20981;-77
2022/10/06 12:32:49;;;;;;;461.00;368.10;;;;;;;;;;5093269;28;20556;-77
2022/10/06 12:35:24;;;;;;;462.53;344.07;;;;;;;;;;5094419;28;20491;-77
2022/10/06 12:37:52;;;;;;;460.43;363.10;;;;;;;;;;5094534;28;20438;-77
2022/10/06 12:40:38;;;;;;;440.03;383.50;;;;;;;;;;5093844;28;20449;-77
2022/10/06 12:43:20;;;;;;;429.07;363.80;;;;;;;;;;5092965;28;20475;-77
2022/10/06 12:45:59;;;;;;;451.60;379.43;;;;;;;;;;5080654;28;20482;-77
2022/10/06 12:48:31;;;;;;;465.90;385.33;;;;;;;;;;5093607;28;20421;-77
2022/10/06 12:51:02;;;;;;;465.73;359.90;;;;;;;;;;5085345;28;20519;-77
2022/10/06 12:53:32;;;;;;;452.63;365.77;;;;;;;;;;5079080;28;21017;-77
2022/10/06 12:56:02;;;;;;;473.20;375.73;;;;;;;;;;5073364;28;20482;-77
2022/10/06 12:58:31;;;;;;;475.50;344.67;;;;;;;;;;5073503;28;20837;-78
2022/10/06 13:01:01;;;;;;;494.00;378.93;;;;;;;;;;5072816;28;20482;-78
2022/10/06 13:03:29;;;;;;;479.73;359.87;;;;;;;;;;5073194;28;20472;-77
2022/10/06 13:05:58;;;;;;;467.20;346.47;;;;;;;;;;5073120;28;20443;-77
2022/10/06 13:08:26;;;;;;;472.80;336.67;;;;;;;;;;5075094;28;20815;-79
2022/10/06 13:11:08;;;;;;;486.57;357.60;;;;;;;;;;5074572;28;20462;-76
2022/10/06 13:13:36;;;;;;;477.73;358.93;;;;;;;;;;5072496;28;20483;-77
2022/10/06 13:16:05;;;;;;;471.10;333.90;;;;;;;;;;5073013;28;20483;-77
2022/10/06 13:18:33;;;;;;;478.73;370.60;;;;;;;;;;5073286;28;20920;-77
2022/10/06 13:21:01;;;;;;;487.37;370.33;;;;;;;;;;5072808;28;20446;-78
2022/10/06 13:23:29;;;;;;;474.03;334.87;;;;;;;;;;5073010;28;20473;-77
2022/10/06 13:25:58;;;;;;;475.37;356.07;;;;;;;;;;5073423;28;20452;-77
2022/10/06 13:28:27;;;;;;;346.57;327.77;;;;;;;;;;5073111;28;20451;-78
2022/10/06 13:30:55;;;;;;;382.23;360.73;;;;;;;;;;5073092;28;20456;-77
2022/10/06 13:33:26;;;;;;;472.03;367.63;;;;;;;;;;5073478;28;20439;-77
2022/10/06 13:35:54;;;;;;;488.03;383.17;;;;;;;;;;5073585;28;20493;-77
2022/10/06 13:38:22;;;;;;;397.83;373.63;;;;;;;;;;5075873;28;20448;-78
2022/10/06 13:41:07;;;;;;;480.83;367.90;;;;;;;;;;5079547;28;20457;-83
2022/10/06 13:43:40;;;;;;;483.53;343.33;;;;;;;;;;5083431;28;20531;-87
2022/10/06 13:46:09;;;;;;;487.73;353.27;;;;;;;;;;5083039;28;20423;-87
2022/10/06 13:48:44;;;;;;;487.63;346.73;;;;;;;;;;5084125;28;20455;-87
2022/10/06 13:51:15;;;;;;;500.97;352.53;;;;;;;;;;5083436;28;20446;-86
2022/10/06 13:53:44;;;;;;;491.17;349.97;;;;;;;;;;5081962;28;20453;-86
2022/10/06 13:56:23;;;;;;;377.07;353.93;;;;;;;;;;5083199;28;20498;-87
2022/10/06 13:58:50;;;;;;;497.83;389.53;;;;;;;;;;5080969;28;20450;-88
2022/10/06 14:01:27;;;;;;;499.07;387.20;;;;;;;;;;5080897;28;20462;-86
2022/10/06 14:04:10;;;;;;;496.23;362.57;;;;;;;;;;5081568;28;20470;-86
2022/10/06 14:06:39;;;;;;;501.10;392.53;;;;;;;;;;5081467;28;20495;-81
2022/10/06 14:09:12;;;;;;;491.83;392.13;;;;;;;;;;5084685;28;20442;-82
2022/10/06 14:11:39;;;;;;;352.10;334.90;;;;;;;;;;5092179;28;20495;-88
2022/10/06 14:14:13;;;;;;;406.63;384.07;;;;;;;;;;5100936;28;20465;-80
2022/10/06 14:16:41;;;;;;;314.40;299.70;;;;;;;;;;5102492;28;20429;-79
2022/10/06 14:19:28;;;;;;;435.27;395.37;;;;;;;;;;5101455;28;20803;-87
2022/10/06 14:21:57;;;;;;;500.33;384.53;;;;;;;;;;5100577;28;20427;-80